<?xml version="1.0" encoding="UTF-8" standalone="no" ?>
<gpx xmlns="http://www.topografix.com/GPX/1/1" xmlns:xsi="http://www.w3.org/2001/XMLSchema-instance" xsi:schemaLocation="http://www.topografix.com/GPX/1/1 http://www.topografix.com/GPX/1/1/gpx.xsd" version="1.1" creator="VisuGPX - https://www.visugpx.com">
  <metadata>
    <name>rando etauliers 10 km</name>
    <desc><![CDATA[photos de la rando dispo en suivant le lien [url]http://rando.pedestre.33.over-blog.com/2020/09/rando-etauliers-10.4-km.html[/url]]]></desc>
  </metadata>
  <trk>
    <name><![CDATA[rando etauliers 10 km]]></name>
    <trkseg>
      <trkpt lat="45.22751" lon="-0.57258">
        <ele>8.789185</ele>
        <time>2009-04-23T11:40:51Z</time>
      </trkpt>
      <trkpt lat="45.22756" lon="-0.57258">
        <ele>5.905273</ele>
        <time>2009-04-23T11:41:02Z</time>
      </trkpt>
      <trkpt lat="45.22756" lon="-0.57259">
        <ele>3.02124</ele>
        <time>2009-04-23T11:41:10Z</time>
      </trkpt>
      <trkpt lat="45.22756" lon="-0.57258">
        <ele>-0.343384</ele>
        <time>2009-04-23T11:41:23Z</time>
      </trkpt>
      <trkpt lat="45.22756" lon="-0.57259">
        <ele>-1.304688</ele>
        <time>2009-04-23T11:41:27Z</time>
      </trkpt>
      <trkpt lat="45.22755" lon="-0.57259">
        <ele>-4.669312</ele>
        <time>2009-04-23T11:41:51Z</time>
      </trkpt>
      <trkpt lat="45.22757" lon="-0.5725">
        <ele>-4.669312</ele>
        <time>2009-04-23T11:44:49Z</time>
      </trkpt>
      <trkpt lat="45.22743" lon="-0.57258">
        <ele>-5.149902</ele>
        <time>2009-04-23T11:45:53Z</time>
      </trkpt>
      <trkpt lat="45.22725" lon="-0.57259">
        <ele>-4.188599</ele>
        <time>2009-04-23T11:46:14Z</time>
      </trkpt>
      <trkpt lat="45.22711" lon="-0.57265">
        <ele>-5.149902</ele>
        <time>2009-04-23T11:46:44Z</time>
      </trkpt>
      <trkpt lat="45.22703" lon="-0.5728">
        <ele>-5.630493</ele>
        <time>2009-04-23T11:46:55Z</time>
      </trkpt>
      <trkpt lat="45.22696" lon="-0.57292">
        <ele>-4.669312</ele>
        <time>2009-04-23T11:47:04Z</time>
      </trkpt>
      <trkpt lat="45.22668" lon="-0.57323">
        <ele>-5.149902</ele>
        <time>2009-04-23T11:47:23Z</time>
      </trkpt>
      <trkpt lat="45.22656" lon="-0.57337">
        <ele>-5.149902</ele>
        <time>2009-04-23T11:47:39Z</time>
      </trkpt>
      <trkpt lat="45.22636" lon="-0.57363">
        <ele>-4.669312</ele>
        <time>2009-04-23T11:48:04Z</time>
      </trkpt>
      <trkpt lat="45.22631" lon="-0.57378">
        <ele>-5.149902</ele>
        <time>2009-04-23T11:48:16Z</time>
      </trkpt>
      <trkpt lat="45.22636" lon="-0.57379">
        <ele>-4.669312</ele>
        <time>2009-04-23T11:48:39Z</time>
      </trkpt>
      <trkpt lat="45.22626" lon="-0.57372">
        <ele>-4.188599</ele>
        <time>2009-04-23T11:48:59Z</time>
      </trkpt>
      <trkpt lat="45.22619" lon="-0.57372">
        <ele>-3.707886</ele>
        <time>2009-04-23T11:49:19Z</time>
      </trkpt>
      <trkpt lat="45.22583" lon="-0.57368">
        <ele>-4.188599</ele>
        <time>2009-04-23T11:49:45Z</time>
      </trkpt>
      <trkpt lat="45.2258" lon="-0.57367">
        <ele>-3.707886</ele>
        <time>2009-04-23T11:49:48Z</time>
      </trkpt>
      <trkpt lat="45.22562" lon="-0.57367">
        <ele>-4.188599</ele>
        <time>2009-04-23T11:50:04Z</time>
      </trkpt>
      <trkpt lat="45.22533" lon="-0.57356">
        <ele>-4.669312</ele>
        <time>2009-04-23T11:50:29Z</time>
      </trkpt>
      <trkpt lat="45.2252" lon="-0.57356">
        <ele>-4.669312</ele>
        <time>2009-04-23T11:50:38Z</time>
      </trkpt>
      <trkpt lat="45.22504" lon="-0.57357">
        <ele>-5.630493</ele>
        <time>2009-04-23T11:50:58Z</time>
      </trkpt>
      <trkpt lat="45.22489" lon="-0.5736">
        <ele>-4.669312</ele>
        <time>2009-04-23T11:51:07Z</time>
      </trkpt>
      <trkpt lat="45.22485" lon="-0.57361">
        <ele>-4.669312</ele>
        <time>2009-04-23T11:51:11Z</time>
      </trkpt>
      <trkpt lat="45.22493" lon="-0.57349">
        <ele>-4.669312</ele>
        <time>2009-04-23T11:51:32Z</time>
      </trkpt>
      <trkpt lat="45.2249" lon="-0.57349">
        <ele>-3.707886</ele>
        <time>2009-04-23T11:51:54Z</time>
      </trkpt>
      <trkpt lat="45.22479" lon="-0.57353">
        <ele>-4.188599</ele>
        <time>2009-04-23T11:52:14Z</time>
      </trkpt>
      <trkpt lat="45.2248" lon="-0.57353">
        <ele>-4.188599</ele>
        <time>2009-04-23T11:52:21Z</time>
      </trkpt>
      <trkpt lat="45.22477" lon="-0.57361">
        <ele>-4.188599</ele>
        <time>2009-04-23T11:52:25Z</time>
      </trkpt>
      <trkpt lat="45.22461" lon="-0.57388">
        <ele>-3.707886</ele>
        <time>2009-04-23T11:52:43Z</time>
      </trkpt>
      <trkpt lat="45.22442" lon="-0.57408">
        <ele>-2.746704</ele>
        <time>2009-04-23T11:52:59Z</time>
      </trkpt>
      <trkpt lat="45.22415" lon="-0.57429">
        <ele>-3.227295</ele>
        <time>2009-04-23T11:53:25Z</time>
      </trkpt>
      <trkpt lat="45.22398" lon="-0.57445">
        <ele>-2.746704</ele>
        <time>2009-04-23T11:53:41Z</time>
      </trkpt>
      <trkpt lat="45.22385" lon="-0.57455">
        <ele>-2.746704</ele>
        <time>2009-04-23T11:53:57Z</time>
      </trkpt>
      <trkpt lat="45.22379" lon="-0.5748">
        <ele>-1.785278</ele>
        <time>2009-04-23T11:54:18Z</time>
      </trkpt>
      <trkpt lat="45.22368" lon="-0.5752">
        <ele>-1.785278</ele>
        <time>2009-04-23T11:54:45Z</time>
      </trkpt>
      <trkpt lat="45.22374" lon="-0.57564">
        <ele>-1.304688</ele>
        <time>2009-04-23T11:55:11Z</time>
      </trkpt>
      <trkpt lat="45.22371" lon="-0.57593">
        <ele>-1.785278</ele>
        <time>2009-04-23T11:55:29Z</time>
      </trkpt>
      <trkpt lat="45.22371" lon="-0.57601">
        <ele>-1.304688</ele>
        <time>2009-04-23T11:55:35Z</time>
      </trkpt>
      <trkpt lat="45.22367" lon="-0.57605">
        <ele>-1.304688</ele>
        <time>2009-04-23T11:55:40Z</time>
      </trkpt>
      <trkpt lat="45.22352" lon="-0.57618">
        <ele>-1.304688</ele>
        <time>2009-04-23T11:55:54Z</time>
      </trkpt>
      <trkpt lat="45.2233" lon="-0.57625">
        <ele>-0.824097</ele>
        <time>2009-04-23T11:56:10Z</time>
      </trkpt>
      <trkpt lat="45.22308" lon="-0.5764">
        <ele>-1.304688</ele>
        <time>2009-04-23T11:56:24Z</time>
      </trkpt>
      <trkpt lat="45.22287" lon="-0.57646">
        <ele>-1.304688</ele>
        <time>2009-04-23T11:56:47Z</time>
      </trkpt>
      <trkpt lat="45.22264" lon="-0.57652">
        <ele>-0.824097</ele>
        <time>2009-04-23T11:57:04Z</time>
      </trkpt>
      <trkpt lat="45.2226" lon="-0.57652">
        <ele>-0.824097</ele>
        <time>2009-04-23T11:57:07Z</time>
      </trkpt>
      <trkpt lat="45.22244" lon="-0.57659">
        <ele>-0.343384</ele>
        <time>2009-04-23T11:57:25Z</time>
      </trkpt>
      <trkpt lat="45.22224" lon="-0.57675">
        <ele>-1.304688</ele>
        <time>2009-04-23T11:57:42Z</time>
      </trkpt>
      <trkpt lat="45.22217" lon="-0.57676">
        <ele>-0.824097</ele>
        <time>2009-04-23T11:57:46Z</time>
      </trkpt>
      <trkpt lat="45.22208" lon="-0.57682">
        <ele>-0.343384</ele>
        <time>2009-04-23T11:57:59Z</time>
      </trkpt>
      <trkpt lat="45.22196" lon="-0.57693">
        <ele>-0.343384</ele>
        <time>2009-04-23T11:58:14Z</time>
      </trkpt>
      <trkpt lat="45.22182" lon="-0.57705">
        <ele>0.137451</ele>
        <time>2009-04-23T11:58:31Z</time>
      </trkpt>
      <trkpt lat="45.22181" lon="-0.57707">
        <ele>-0.343384</ele>
        <time>2009-04-23T11:58:32Z</time>
      </trkpt>
      <trkpt lat="45.22164" lon="-0.57721">
        <ele>-0.343384</ele>
        <time>2009-04-23T11:58:48Z</time>
      </trkpt>
      <trkpt lat="45.2216" lon="-0.57723">
        <ele>0.137451</ele>
        <time>2009-04-23T11:58:51Z</time>
      </trkpt>
      <trkpt lat="45.22154" lon="-0.5773">
        <ele>-0.343384</ele>
        <time>2009-04-23T11:58:56Z</time>
      </trkpt>
      <trkpt lat="45.2214" lon="-0.57749">
        <ele>0.618042</ele>
        <time>2009-04-23T11:59:14Z</time>
      </trkpt>
      <trkpt lat="45.22124" lon="-0.57758">
        <ele>0.618042</ele>
        <time>2009-04-23T11:59:28Z</time>
      </trkpt>
      <trkpt lat="45.22114" lon="-0.57777">
        <ele>0.618042</ele>
        <time>2009-04-23T11:59:42Z</time>
      </trkpt>
      <trkpt lat="45.22096" lon="-0.57793">
        <ele>0.618042</ele>
        <time>2009-04-23T11:59:58Z</time>
      </trkpt>
      <trkpt lat="45.22079" lon="-0.57807">
        <ele>1.098633</ele>
        <time>2009-04-23T12:00:12Z</time>
      </trkpt>
      <trkpt lat="45.22072" lon="-0.57822">
        <ele>0.618042</ele>
        <time>2009-04-23T12:00:27Z</time>
      </trkpt>
      <trkpt lat="45.22049" lon="-0.5785">
        <ele>1.098633</ele>
        <time>2009-04-23T12:00:49Z</time>
      </trkpt>
      <trkpt lat="45.22041" lon="-0.57869">
        <ele>1.098633</ele>
        <time>2009-04-23T12:01:04Z</time>
      </trkpt>
      <trkpt lat="45.22028" lon="-0.57894">
        <ele>1.098633</ele>
        <time>2009-04-23T12:01:22Z</time>
      </trkpt>
      <trkpt lat="45.22023" lon="-0.57901">
        <ele>1.579346</ele>
        <time>2009-04-23T12:01:28Z</time>
      </trkpt>
      <trkpt lat="45.22019" lon="-0.57907">
        <ele>1.098633</ele>
        <time>2009-04-23T12:01:33Z</time>
      </trkpt>
      <trkpt lat="45.22003" lon="-0.57929">
        <ele>0.618042</ele>
        <time>2009-04-23T12:01:51Z</time>
      </trkpt>
      <trkpt lat="45.21985" lon="-0.57954">
        <ele>0.618042</ele>
        <time>2009-04-23T12:02:09Z</time>
      </trkpt>
      <trkpt lat="45.21985" lon="-0.5796">
        <ele>0.618042</ele>
        <time>2009-04-23T12:02:13Z</time>
      </trkpt>
      <trkpt lat="45.21982" lon="-0.57967">
        <ele>0.618042</ele>
        <time>2009-04-23T12:02:19Z</time>
      </trkpt>
      <trkpt lat="45.21977" lon="-0.57971">
        <ele>0.618042</ele>
        <time>2009-04-23T12:02:23Z</time>
      </trkpt>
      <trkpt lat="45.2197" lon="-0.57971">
        <ele>1.098633</ele>
        <time>2009-04-23T12:02:29Z</time>
      </trkpt>
      <trkpt lat="45.21953" lon="-0.57983">
        <ele>0.618042</ele>
        <time>2009-04-23T12:02:47Z</time>
      </trkpt>
      <trkpt lat="45.21932" lon="-0.57997">
        <ele>1.579346</ele>
        <time>2009-04-23T12:03:03Z</time>
      </trkpt>
      <trkpt lat="45.21901" lon="-0.58011">
        <ele>1.098633</ele>
        <time>2009-04-23T12:03:28Z</time>
      </trkpt>
      <trkpt lat="45.21887" lon="-0.58023">
        <ele>1.579346</ele>
        <time>2009-04-23T12:03:43Z</time>
      </trkpt>
      <trkpt lat="45.21869" lon="-0.5803">
        <ele>2.060059</ele>
        <time>2009-04-23T12:03:56Z</time>
      </trkpt>
      <trkpt lat="45.21848" lon="-0.58043">
        <ele>2.540649</ele>
        <time>2009-04-23T12:04:13Z</time>
      </trkpt>
      <trkpt lat="45.21832" lon="-0.5805">
        <ele>2.540649</ele>
        <time>2009-04-23T12:04:29Z</time>
      </trkpt>
      <trkpt lat="45.21812" lon="-0.58062">
        <ele>2.060059</ele>
        <time>2009-04-23T12:04:47Z</time>
      </trkpt>
      <trkpt lat="45.21796" lon="-0.58069">
        <ele>3.02124</ele>
        <time>2009-04-23T12:05:03Z</time>
      </trkpt>
      <trkpt lat="45.21778" lon="-0.58078">
        <ele>3.02124</ele>
        <time>2009-04-23T12:05:16Z</time>
      </trkpt>
      <trkpt lat="45.21774" lon="-0.58081">
        <ele>3.02124</ele>
        <time>2009-04-23T12:05:20Z</time>
      </trkpt>
      <trkpt lat="45.21766" lon="-0.58085">
        <ele>3.02124</ele>
        <time>2009-04-23T12:05:28Z</time>
      </trkpt>
      <trkpt lat="45.2175" lon="-0.58094">
        <ele>3.501953</ele>
        <time>2009-04-23T12:05:44Z</time>
      </trkpt>
      <trkpt lat="45.21728" lon="-0.58112">
        <ele>2.540649</ele>
        <time>2009-04-23T12:06:04Z</time>
      </trkpt>
      <trkpt lat="45.217" lon="-0.58131">
        <ele>3.02124</ele>
        <time>2009-04-23T12:06:27Z</time>
      </trkpt>
      <trkpt lat="45.21667" lon="-0.58144">
        <ele>3.501953</ele>
        <time>2009-04-23T12:06:52Z</time>
      </trkpt>
      <trkpt lat="45.21647" lon="-0.58153">
        <ele>3.501953</ele>
        <time>2009-04-23T12:07:09Z</time>
      </trkpt>
      <trkpt lat="45.21625" lon="-0.58165">
        <ele>3.501953</ele>
        <time>2009-04-23T12:07:26Z</time>
      </trkpt>
      <trkpt lat="45.21606" lon="-0.58169">
        <ele>3.501953</ele>
        <time>2009-04-23T12:07:43Z</time>
      </trkpt>
      <trkpt lat="45.21591" lon="-0.58178">
        <ele>4.463257</ele>
        <time>2009-04-23T12:07:59Z</time>
      </trkpt>
      <trkpt lat="45.21583" lon="-0.58191">
        <ele>5.424561</ele>
        <time>2009-04-23T12:08:10Z</time>
      </trkpt>
      <trkpt lat="45.21562" lon="-0.58203">
        <ele>5.424561</ele>
        <time>2009-04-23T12:08:27Z</time>
      </trkpt>
      <trkpt lat="45.21541" lon="-0.58212">
        <ele>5.905273</ele>
        <time>2009-04-23T12:08:46Z</time>
      </trkpt>
      <trkpt lat="45.21509" lon="-0.58227">
        <ele>6.385864</ele>
        <time>2009-04-23T12:09:12Z</time>
      </trkpt>
      <trkpt lat="45.21481" lon="-0.58243">
        <ele>7.347168</ele>
        <time>2009-04-23T12:09:34Z</time>
      </trkpt>
      <trkpt lat="45.21456" lon="-0.58259">
        <ele>7.347168</ele>
        <time>2009-04-23T12:09:59Z</time>
      </trkpt>
      <trkpt lat="45.21427" lon="-0.58274">
        <ele>8.308594</ele>
        <time>2009-04-23T12:10:20Z</time>
      </trkpt>
      <trkpt lat="45.21408" lon="-0.58288">
        <ele>8.308594</ele>
        <time>2009-04-23T12:10:36Z</time>
      </trkpt>
      <trkpt lat="45.21401" lon="-0.58293">
        <ele>7.827881</ele>
        <time>2009-04-23T12:10:41Z</time>
      </trkpt>
      <trkpt lat="45.21396" lon="-0.58297">
        <ele>8.308594</ele>
        <time>2009-04-23T12:10:46Z</time>
      </trkpt>
      <trkpt lat="45.21383" lon="-0.58304">
        <ele>8.789185</ele>
        <time>2009-04-23T12:11:00Z</time>
      </trkpt>
      <trkpt lat="45.21354" lon="-0.58313">
        <ele>8.789185</ele>
        <time>2009-04-23T12:11:25Z</time>
      </trkpt>
      <trkpt lat="45.21353" lon="-0.58312">
        <ele>9.269897</ele>
        <time>2009-04-23T12:11:26Z</time>
      </trkpt>
      <trkpt lat="45.21328" lon="-0.58326">
        <ele>8.789185</ele>
        <time>2009-04-23T12:11:51Z</time>
      </trkpt>
      <trkpt lat="45.21317" lon="-0.5833">
        <ele>8.308594</ele>
        <time>2009-04-23T12:11:58Z</time>
      </trkpt>
      <trkpt lat="45.21296" lon="-0.58345">
        <ele>9.269897</ele>
        <time>2009-04-23T12:12:16Z</time>
      </trkpt>
      <trkpt lat="45.21274" lon="-0.58359">
        <ele>10.231201</ele>
        <time>2009-04-23T12:12:38Z</time>
      </trkpt>
      <trkpt lat="45.2126" lon="-0.58366">
        <ele>10.231201</ele>
        <time>2009-04-23T12:13:02Z</time>
      </trkpt>
      <trkpt lat="45.21239" lon="-0.58376">
        <ele>10.711792</ele>
        <time>2009-04-23T12:13:39Z</time>
      </trkpt>
      <trkpt lat="45.2122" lon="-0.58386">
        <ele>12.153809</ele>
        <time>2009-04-23T12:13:54Z</time>
      </trkpt>
      <trkpt lat="45.21201" lon="-0.58395">
        <ele>11.673218</ele>
        <time>2009-04-23T12:14:08Z</time>
      </trkpt>
      <trkpt lat="45.212" lon="-0.58396">
        <ele>10.711792</ele>
        <time>2009-04-23T12:14:09Z</time>
      </trkpt>
      <trkpt lat="45.21191" lon="-0.58402">
        <ele>7.827881</ele>
        <time>2009-04-23T12:14:18Z</time>
      </trkpt>
      <trkpt lat="45.2119" lon="-0.58402">
        <ele>13.115112</ele>
        <time>2009-04-23T12:14:19Z</time>
      </trkpt>
      <trkpt lat="45.21188" lon="-0.58404">
        <ele>9.75061</ele>
        <time>2009-04-23T12:14:21Z</time>
      </trkpt>
      <trkpt lat="45.21177" lon="-0.5841">
        <ele>9.75061</ele>
        <time>2009-04-23T12:14:47Z</time>
      </trkpt>
      <trkpt lat="45.21152" lon="-0.5842">
        <ele>10.231201</ele>
        <time>2009-04-23T12:15:16Z</time>
      </trkpt>
      <trkpt lat="45.21116" lon="-0.5845">
        <ele>10.231201</ele>
        <time>2009-04-23T12:15:43Z</time>
      </trkpt>
      <trkpt lat="45.21088" lon="-0.58455">
        <ele>10.711792</ele>
        <time>2009-04-23T12:16:09Z</time>
      </trkpt>
      <trkpt lat="45.21064" lon="-0.58478">
        <ele>10.231201</ele>
        <time>2009-04-23T12:16:30Z</time>
      </trkpt>
      <trkpt lat="45.21016" lon="-0.58503">
        <ele>9.75061</ele>
        <time>2009-04-23T12:17:04Z</time>
      </trkpt>
      <trkpt lat="45.20985" lon="-0.58523">
        <ele>9.269897</ele>
        <time>2009-04-23T12:17:34Z</time>
      </trkpt>
      <trkpt lat="45.2095" lon="-0.58536">
        <ele>9.75061</ele>
        <time>2009-04-23T12:18:00Z</time>
      </trkpt>
      <trkpt lat="45.2092" lon="-0.5855">
        <ele>9.75061</ele>
        <time>2009-04-23T12:18:27Z</time>
      </trkpt>
      <trkpt lat="45.20888" lon="-0.58567">
        <ele>8.789185</ele>
        <time>2009-04-23T12:18:55Z</time>
      </trkpt>
      <trkpt lat="45.20859" lon="-0.58585">
        <ele>8.789185</ele>
        <time>2009-04-23T12:19:20Z</time>
      </trkpt>
      <trkpt lat="45.20822" lon="-0.58606">
        <ele>8.789185</ele>
        <time>2009-04-23T12:19:49Z</time>
      </trkpt>
      <trkpt lat="45.20791" lon="-0.58619">
        <ele>9.269897</ele>
        <time>2009-04-23T12:20:15Z</time>
      </trkpt>
      <trkpt lat="45.20789" lon="-0.58621">
        <ele>9.269897</ele>
        <time>2009-04-23T12:20:17Z</time>
      </trkpt>
      <trkpt lat="45.2077" lon="-0.58626">
        <ele>9.269897</ele>
        <time>2009-04-23T12:20:33Z</time>
      </trkpt>
      <trkpt lat="45.20753" lon="-0.58638">
        <ele>9.269897</ele>
        <time>2009-04-23T12:20:48Z</time>
      </trkpt>
      <trkpt lat="45.20719" lon="-0.58655">
        <ele>9.269897</ele>
        <time>2009-04-23T12:21:18Z</time>
      </trkpt>
      <trkpt lat="45.20695" lon="-0.5867">
        <ele>8.789185</ele>
        <time>2009-04-23T12:21:41Z</time>
      </trkpt>
      <trkpt lat="45.20658" lon="-0.58693">
        <ele>8.789185</ele>
        <time>2009-04-23T12:22:10Z</time>
      </trkpt>
      <trkpt lat="45.20631" lon="-0.5871">
        <ele>9.269897</ele>
        <time>2009-04-23T12:22:38Z</time>
      </trkpt>
      <trkpt lat="45.20623" lon="-0.58713">
        <ele>8.789185</ele>
        <time>2009-04-23T12:22:50Z</time>
      </trkpt>
      <trkpt lat="45.2061" lon="-0.5872">
        <ele>8.789185</ele>
        <time>2009-04-23T12:23:11Z</time>
      </trkpt>
      <trkpt lat="45.20589" lon="-0.58729">
        <ele>8.789185</ele>
        <time>2009-04-23T12:23:33Z</time>
      </trkpt>
      <trkpt lat="45.20588" lon="-0.58728">
        <ele>9.269897</ele>
        <time>2009-04-23T12:24:13Z</time>
      </trkpt>
      <trkpt lat="45.20603" lon="-0.58717">
        <ele>8.789185</ele>
        <time>2009-04-23T12:24:45Z</time>
      </trkpt>
      <trkpt lat="45.20604" lon="-0.58716">
        <ele>8.789185</ele>
        <time>2009-04-23T12:25:27Z</time>
      </trkpt>
      <trkpt lat="45.20598" lon="-0.58719">
        <ele>9.75061</ele>
        <time>2009-04-23T12:26:00Z</time>
      </trkpt>
      <trkpt lat="45.2059" lon="-0.58693">
        <ele>10.231201</ele>
        <time>2009-04-23T12:26:19Z</time>
      </trkpt>
      <trkpt lat="45.20582" lon="-0.58669">
        <ele>9.75061</ele>
        <time>2009-04-23T12:26:37Z</time>
      </trkpt>
      <trkpt lat="45.20575" lon="-0.58654">
        <ele>10.231201</ele>
        <time>2009-04-23T12:26:54Z</time>
      </trkpt>
      <trkpt lat="45.20567" lon="-0.58625">
        <ele>10.231201</ele>
        <time>2009-04-23T12:27:10Z</time>
      </trkpt>
      <trkpt lat="45.2056" lon="-0.58594">
        <ele>10.711792</ele>
        <time>2009-04-23T12:27:29Z</time>
      </trkpt>
      <trkpt lat="45.20554" lon="-0.5857">
        <ele>10.711792</ele>
        <time>2009-04-23T12:27:43Z</time>
      </trkpt>
      <trkpt lat="45.20547" lon="-0.58535">
        <ele>11.673218</ele>
        <time>2009-04-23T12:28:03Z</time>
      </trkpt>
      <trkpt lat="45.20546" lon="-0.58534">
        <ele>11.192505</ele>
        <time>2009-04-23T12:28:04Z</time>
      </trkpt>
      <trkpt lat="45.20536" lon="-0.58503">
        <ele>11.192505</ele>
        <time>2009-04-23T12:28:23Z</time>
      </trkpt>
      <trkpt lat="45.20526" lon="-0.58467">
        <ele>11.192505</ele>
        <time>2009-04-23T12:28:44Z</time>
      </trkpt>
      <trkpt lat="45.2052" lon="-0.5844">
        <ele>11.673218</ele>
        <time>2009-04-23T12:29:01Z</time>
      </trkpt>
      <trkpt lat="45.20517" lon="-0.58427">
        <ele>11.673218</ele>
        <time>2009-04-23T12:29:09Z</time>
      </trkpt>
      <trkpt lat="45.20511" lon="-0.5841">
        <ele>11.673218</ele>
        <time>2009-04-23T12:29:26Z</time>
      </trkpt>
      <trkpt lat="45.20501" lon="-0.58384">
        <ele>12.634399</ele>
        <time>2009-04-23T12:29:50Z</time>
      </trkpt>
      <trkpt lat="45.20499" lon="-0.58377">
        <ele>11.673218</ele>
        <time>2009-04-23T12:29:55Z</time>
      </trkpt>
      <trkpt lat="45.20494" lon="-0.58369">
        <ele>12.634399</ele>
        <time>2009-04-23T12:30:18Z</time>
      </trkpt>
      <trkpt lat="45.20491" lon="-0.58354">
        <ele>12.153809</ele>
        <time>2009-04-23T12:31:24Z</time>
      </trkpt>
      <trkpt lat="45.20485" lon="-0.58347">
        <ele>12.634399</ele>
        <time>2009-04-23T12:31:48Z</time>
      </trkpt>
      <trkpt lat="45.20485" lon="-0.58339">
        <ele>13.115112</ele>
        <time>2009-04-23T12:31:50Z</time>
      </trkpt>
      <trkpt lat="45.20472" lon="-0.58333">
        <ele>12.634399</ele>
        <time>2009-04-23T12:32:01Z</time>
      </trkpt>
      <trkpt lat="45.20453" lon="-0.58321">
        <ele>12.634399</ele>
        <time>2009-04-23T12:32:16Z</time>
      </trkpt>
      <trkpt lat="45.20429" lon="-0.58306">
        <ele>12.153809</ele>
        <time>2009-04-23T12:32:35Z</time>
      </trkpt>
      <trkpt lat="45.20428" lon="-0.58301">
        <ele>11.673218</ele>
        <time>2009-04-23T12:32:39Z</time>
      </trkpt>
      <trkpt lat="45.20408" lon="-0.58289">
        <ele>11.673218</ele>
        <time>2009-04-23T12:32:55Z</time>
      </trkpt>
      <trkpt lat="45.2039" lon="-0.58274">
        <ele>13.115112</ele>
        <time>2009-04-23T12:33:14Z</time>
      </trkpt>
      <trkpt lat="45.20388" lon="-0.58269">
        <ele>12.634399</ele>
        <time>2009-04-23T12:33:16Z</time>
      </trkpt>
      <trkpt lat="45.20388" lon="-0.58261">
        <ele>12.634399</ele>
        <time>2009-04-23T12:33:24Z</time>
      </trkpt>
      <trkpt lat="45.20393" lon="-0.58248">
        <ele>13.595825</ele>
        <time>2009-04-23T12:33:32Z</time>
      </trkpt>
      <trkpt lat="45.20398" lon="-0.58227">
        <ele>14.076416</ele>
        <time>2009-04-23T12:33:44Z</time>
      </trkpt>
      <trkpt lat="45.20407" lon="-0.58199">
        <ele>14.076416</ele>
        <time>2009-04-23T12:34:02Z</time>
      </trkpt>
      <trkpt lat="45.20408" lon="-0.58197">
        <ele>14.076416</ele>
        <time>2009-04-23T12:34:03Z</time>
      </trkpt>
      <trkpt lat="45.20409" lon="-0.58187">
        <ele>14.557007</ele>
        <time>2009-04-23T12:34:08Z</time>
      </trkpt>
      <trkpt lat="45.20413" lon="-0.58181">
        <ele>14.557007</ele>
        <time>2009-04-23T12:34:13Z</time>
      </trkpt>
      <trkpt lat="45.20421" lon="-0.58152">
        <ele>14.076416</ele>
        <time>2009-04-23T12:34:30Z</time>
      </trkpt>
      <trkpt lat="45.20429" lon="-0.58123">
        <ele>15.03772</ele>
        <time>2009-04-23T12:34:48Z</time>
      </trkpt>
      <trkpt lat="45.20437" lon="-0.58097">
        <ele>15.518433</ele>
        <time>2009-04-23T12:35:06Z</time>
      </trkpt>
      <trkpt lat="45.20446" lon="-0.58074">
        <ele>15.518433</ele>
        <time>2009-04-23T12:35:21Z</time>
      </trkpt>
      <trkpt lat="45.20448" lon="-0.58069">
        <ele>15.999023</ele>
        <time>2009-04-23T12:35:25Z</time>
      </trkpt>
      <trkpt lat="45.2045" lon="-0.58052">
        <ele>15.518433</ele>
        <time>2009-04-23T12:35:34Z</time>
      </trkpt>
      <trkpt lat="45.2046" lon="-0.58028">
        <ele>15.518433</ele>
        <time>2009-04-23T12:35:53Z</time>
      </trkpt>
      <trkpt lat="45.20468" lon="-0.58005">
        <ele>15.999023</ele>
        <time>2009-04-23T12:36:14Z</time>
      </trkpt>
      <trkpt lat="45.20477" lon="-0.57976">
        <ele>16.479736</ele>
        <time>2009-04-23T12:36:32Z</time>
      </trkpt>
      <trkpt lat="45.2048" lon="-0.57968">
        <ele>15.999023</ele>
        <time>2009-04-23T12:36:36Z</time>
      </trkpt>
      <trkpt lat="45.20481" lon="-0.57963">
        <ele>15.999023</ele>
        <time>2009-04-23T12:36:40Z</time>
      </trkpt>
      <trkpt lat="45.20487" lon="-0.57949">
        <ele>15.999023</ele>
        <time>2009-04-23T12:36:50Z</time>
      </trkpt>
      <trkpt lat="45.2049" lon="-0.57936">
        <ele>15.999023</ele>
        <time>2009-04-23T12:36:58Z</time>
      </trkpt>
      <trkpt lat="45.2049" lon="-0.57932">
        <ele>17.441162</ele>
        <time>2009-04-23T12:37:00Z</time>
      </trkpt>
      <trkpt lat="45.20499" lon="-0.57909">
        <ele>16.479736</ele>
        <time>2009-04-23T12:37:17Z</time>
      </trkpt>
      <trkpt lat="45.20505" lon="-0.57888">
        <ele>16.479736</ele>
        <time>2009-04-23T12:37:32Z</time>
      </trkpt>
      <trkpt lat="45.20514" lon="-0.57855">
        <ele>16.960449</ele>
        <time>2009-04-23T12:37:55Z</time>
      </trkpt>
      <trkpt lat="45.20523" lon="-0.57827">
        <ele>16.479736</ele>
        <time>2009-04-23T12:38:13Z</time>
      </trkpt>
      <trkpt lat="45.20526" lon="-0.57815">
        <ele>17.921753</ele>
        <time>2009-04-23T12:38:21Z</time>
      </trkpt>
      <trkpt lat="45.20528" lon="-0.57808">
        <ele>15.518433</ele>
        <time>2009-04-23T12:38:25Z</time>
      </trkpt>
      <trkpt lat="45.2053" lon="-0.57798">
        <ele>15.518433</ele>
        <time>2009-04-23T12:38:31Z</time>
      </trkpt>
      <trkpt lat="45.20539" lon="-0.5777">
        <ele>16.960449</ele>
        <time>2009-04-23T12:38:48Z</time>
      </trkpt>
      <trkpt lat="45.20545" lon="-0.57745">
        <ele>16.479736</ele>
        <time>2009-04-23T12:39:04Z</time>
      </trkpt>
      <trkpt lat="45.20556" lon="-0.57708">
        <ele>16.960449</ele>
        <time>2009-04-23T12:39:25Z</time>
      </trkpt>
      <trkpt lat="45.20568" lon="-0.57663">
        <ele>16.960449</ele>
        <time>2009-04-23T12:39:52Z</time>
      </trkpt>
      <trkpt lat="45.20586" lon="-0.57613">
        <ele>17.441162</ele>
        <time>2009-04-23T12:40:24Z</time>
      </trkpt>
      <trkpt lat="45.20599" lon="-0.57571">
        <ele>18.883057</ele>
        <time>2009-04-23T12:40:53Z</time>
      </trkpt>
      <trkpt lat="45.20603" lon="-0.57554">
        <ele>19.36377</ele>
        <time>2009-04-23T12:41:12Z</time>
      </trkpt>
      <trkpt lat="45.20637" lon="-0.57542">
        <ele>18.402344</ele>
        <time>2009-04-23T12:41:38Z</time>
      </trkpt>
      <trkpt lat="45.20664" lon="-0.57523">
        <ele>18.402344</ele>
        <time>2009-04-23T12:42:03Z</time>
      </trkpt>
      <trkpt lat="45.207" lon="-0.57499">
        <ele>18.402344</ele>
        <time>2009-04-23T12:42:32Z</time>
      </trkpt>
      <trkpt lat="45.20718" lon="-0.57488">
        <ele>18.883057</ele>
        <time>2009-04-23T12:42:48Z</time>
      </trkpt>
      <trkpt lat="45.20721" lon="-0.57484">
        <ele>17.921753</ele>
        <time>2009-04-23T12:42:52Z</time>
      </trkpt>
      <trkpt lat="45.20728" lon="-0.57482">
        <ele>18.402344</ele>
        <time>2009-04-23T12:42:57Z</time>
      </trkpt>
      <trkpt lat="45.20739" lon="-0.57474">
        <ele>17.921753</ele>
        <time>2009-04-23T12:43:07Z</time>
      </trkpt>
      <trkpt lat="45.20744" lon="-0.57471">
        <ele>18.402344</ele>
        <time>2009-04-23T12:43:11Z</time>
      </trkpt>
      <trkpt lat="45.20764" lon="-0.57459">
        <ele>18.402344</ele>
        <time>2009-04-23T12:43:29Z</time>
      </trkpt>
      <trkpt lat="45.20768" lon="-0.57452">
        <ele>18.402344</ele>
        <time>2009-04-23T12:43:35Z</time>
      </trkpt>
      <trkpt lat="45.20778" lon="-0.57456">
        <ele>14.076416</ele>
        <time>2009-04-23T12:43:44Z</time>
      </trkpt>
      <trkpt lat="45.20777" lon="-0.57458">
        <ele>20.324951</ele>
        <time>2009-04-23T12:43:45Z</time>
      </trkpt>
      <trkpt lat="45.2079" lon="-0.57451">
        <ele>16.960449</ele>
        <time>2009-04-23T12:43:56Z</time>
      </trkpt>
      <trkpt lat="45.20794" lon="-0.5745">
        <ele>18.402344</ele>
        <time>2009-04-23T12:43:59Z</time>
      </trkpt>
      <trkpt lat="45.20804" lon="-0.57456">
        <ele>17.441162</ele>
        <time>2009-04-23T12:44:27Z</time>
      </trkpt>
      <trkpt lat="45.20806" lon="-0.57451">
        <ele>17.441162</ele>
        <time>2009-04-23T12:44:37Z</time>
      </trkpt>
      <trkpt lat="45.20826" lon="-0.57439">
        <ele>16.960449</ele>
        <time>2009-04-23T12:44:58Z</time>
      </trkpt>
      <trkpt lat="45.20834" lon="-0.57437">
        <ele>15.518433</ele>
        <time>2009-04-23T12:45:11Z</time>
      </trkpt>
      <trkpt lat="45.20837" lon="-0.57431">
        <ele>16.479736</ele>
        <time>2009-04-23T12:46:00Z</time>
      </trkpt>
      <trkpt lat="45.20861" lon="-0.57414">
        <ele>15.999023</ele>
        <time>2009-04-23T12:46:21Z</time>
      </trkpt>
      <trkpt lat="45.20866" lon="-0.57412">
        <ele>16.479736</ele>
        <time>2009-04-23T12:46:25Z</time>
      </trkpt>
      <trkpt lat="45.20882" lon="-0.57397">
        <ele>16.479736</ele>
        <time>2009-04-23T12:46:39Z</time>
      </trkpt>
      <trkpt lat="45.20895" lon="-0.57392">
        <ele>15.999023</ele>
        <time>2009-04-23T12:46:50Z</time>
      </trkpt>
      <trkpt lat="45.20915" lon="-0.57382">
        <ele>16.479736</ele>
        <time>2009-04-23T12:47:08Z</time>
      </trkpt>
      <trkpt lat="45.20917" lon="-0.57381">
        <ele>15.999023</ele>
        <time>2009-04-23T12:47:10Z</time>
      </trkpt>
      <trkpt lat="45.20929" lon="-0.57379">
        <ele>15.999023</ele>
        <time>2009-04-23T12:47:17Z</time>
      </trkpt>
      <trkpt lat="45.20932" lon="-0.57376">
        <ele>16.479736</ele>
        <time>2009-04-23T12:47:20Z</time>
      </trkpt>
      <trkpt lat="45.20938" lon="-0.57373">
        <ele>15.999023</ele>
        <time>2009-04-23T12:47:24Z</time>
      </trkpt>
      <trkpt lat="45.20962" lon="-0.57359">
        <ele>15.999023</ele>
        <time>2009-04-23T12:47:43Z</time>
      </trkpt>
      <trkpt lat="45.20968" lon="-0.57356">
        <ele>15.999023</ele>
        <time>2009-04-23T12:47:48Z</time>
      </trkpt>
      <trkpt lat="45.20981" lon="-0.57349">
        <ele>15.518433</ele>
        <time>2009-04-23T12:48:00Z</time>
      </trkpt>
      <trkpt lat="45.20993" lon="-0.57338">
        <ele>15.518433</ele>
        <time>2009-04-23T12:48:15Z</time>
      </trkpt>
      <trkpt lat="45.21014" lon="-0.57332">
        <ele>15.999023</ele>
        <time>2009-04-23T12:48:31Z</time>
      </trkpt>
      <trkpt lat="45.21026" lon="-0.57325">
        <ele>15.518433</ele>
        <time>2009-04-23T12:48:41Z</time>
      </trkpt>
      <trkpt lat="45.21046" lon="-0.5731">
        <ele>15.518433</ele>
        <time>2009-04-23T12:48:59Z</time>
      </trkpt>
      <trkpt lat="45.21067" lon="-0.57297">
        <ele>15.03772</ele>
        <time>2009-04-23T12:49:17Z</time>
      </trkpt>
      <trkpt lat="45.21069" lon="-0.57295">
        <ele>15.518433</ele>
        <time>2009-04-23T12:49:19Z</time>
      </trkpt>
      <trkpt lat="45.21077" lon="-0.57291">
        <ele>15.03772</ele>
        <time>2009-04-23T12:49:26Z</time>
      </trkpt>
      <trkpt lat="45.21097" lon="-0.57281">
        <ele>15.518433</ele>
        <time>2009-04-23T12:49:42Z</time>
      </trkpt>
      <trkpt lat="45.21115" lon="-0.57272">
        <ele>14.557007</ele>
        <time>2009-04-23T12:49:56Z</time>
      </trkpt>
      <trkpt lat="45.21134" lon="-0.57258">
        <ele>14.557007</ele>
        <time>2009-04-23T12:50:12Z</time>
      </trkpt>
      <trkpt lat="45.21148" lon="-0.57247">
        <ele>15.03772</ele>
        <time>2009-04-23T12:50:24Z</time>
      </trkpt>
      <trkpt lat="45.21155" lon="-0.57242">
        <ele>15.03772</ele>
        <time>2009-04-23T12:50:30Z</time>
      </trkpt>
      <trkpt lat="45.21175" lon="-0.57238">
        <ele>15.03772</ele>
        <time>2009-04-23T12:50:46Z</time>
      </trkpt>
      <trkpt lat="45.21182" lon="-0.57235">
        <ele>15.03772</ele>
        <time>2009-04-23T12:50:52Z</time>
      </trkpt>
      <trkpt lat="45.21203" lon="-0.57218">
        <ele>15.03772</ele>
        <time>2009-04-23T12:51:11Z</time>
      </trkpt>
      <trkpt lat="45.21206" lon="-0.57217">
        <ele>14.076416</ele>
        <time>2009-04-23T12:51:13Z</time>
      </trkpt>
      <trkpt lat="45.21221" lon="-0.57208">
        <ele>14.076416</ele>
        <time>2009-04-23T12:51:29Z</time>
      </trkpt>
      <trkpt lat="45.21242" lon="-0.57199">
        <ele>14.076416</ele>
        <time>2009-04-23T12:51:45Z</time>
      </trkpt>
      <trkpt lat="45.21256" lon="-0.57187">
        <ele>13.595825</ele>
        <time>2009-04-23T12:51:59Z</time>
      </trkpt>
      <trkpt lat="45.21262" lon="-0.57183">
        <ele>13.595825</ele>
        <time>2009-04-23T12:52:04Z</time>
      </trkpt>
      <trkpt lat="45.21268" lon="-0.57181">
        <ele>14.076416</ele>
        <time>2009-04-23T12:52:08Z</time>
      </trkpt>
      <trkpt lat="45.21286" lon="-0.57174">
        <ele>13.595825</ele>
        <time>2009-04-23T12:52:22Z</time>
      </trkpt>
      <trkpt lat="45.21305" lon="-0.57163">
        <ele>14.076416</ele>
        <time>2009-04-23T12:52:39Z</time>
      </trkpt>
      <trkpt lat="45.21326" lon="-0.5715">
        <ele>12.634399</ele>
        <time>2009-04-23T12:52:59Z</time>
      </trkpt>
      <trkpt lat="45.21345" lon="-0.5714">
        <ele>12.634399</ele>
        <time>2009-04-23T12:53:17Z</time>
      </trkpt>
      <trkpt lat="45.21346" lon="-0.57138">
        <ele>12.634399</ele>
        <time>2009-04-23T12:53:18Z</time>
      </trkpt>
      <trkpt lat="45.21355" lon="-0.57129">
        <ele>12.153809</ele>
        <time>2009-04-23T12:53:28Z</time>
      </trkpt>
      <trkpt lat="45.21381" lon="-0.57122">
        <ele>11.192505</ele>
        <time>2009-04-23T12:53:46Z</time>
      </trkpt>
      <trkpt lat="45.21399" lon="-0.57109">
        <ele>12.153809</ele>
        <time>2009-04-23T12:54:03Z</time>
      </trkpt>
      <trkpt lat="45.21401" lon="-0.57108">
        <ele>11.673218</ele>
        <time>2009-04-23T12:54:04Z</time>
      </trkpt>
      <trkpt lat="45.21416" lon="-0.57093">
        <ele>11.673218</ele>
        <time>2009-04-23T12:54:21Z</time>
      </trkpt>
      <trkpt lat="45.2144" lon="-0.57082">
        <ele>10.231201</ele>
        <time>2009-04-23T12:54:40Z</time>
      </trkpt>
      <trkpt lat="45.21456" lon="-0.5707">
        <ele>10.231201</ele>
        <time>2009-04-23T12:54:53Z</time>
      </trkpt>
      <trkpt lat="45.21467" lon="-0.57065">
        <ele>9.75061</ele>
        <time>2009-04-23T12:55:01Z</time>
      </trkpt>
      <trkpt lat="45.21487" lon="-0.57055">
        <ele>10.231201</ele>
        <time>2009-04-23T12:55:18Z</time>
      </trkpt>
      <trkpt lat="45.21491" lon="-0.5705">
        <ele>10.231201</ele>
        <time>2009-04-23T12:55:22Z</time>
      </trkpt>
      <trkpt lat="45.21497" lon="-0.57045">
        <ele>10.231201</ele>
        <time>2009-04-23T12:55:27Z</time>
      </trkpt>
      <trkpt lat="45.21513" lon="-0.5704">
        <ele>10.231201</ele>
        <time>2009-04-23T12:55:39Z</time>
      </trkpt>
      <trkpt lat="45.21537" lon="-0.57025">
        <ele>9.75061</ele>
        <time>2009-04-23T12:55:59Z</time>
      </trkpt>
      <trkpt lat="45.21557" lon="-0.57014">
        <ele>9.75061</ele>
        <time>2009-04-23T12:56:15Z</time>
      </trkpt>
      <trkpt lat="45.21566" lon="-0.57012">
        <ele>9.269897</ele>
        <time>2009-04-23T12:56:22Z</time>
      </trkpt>
      <trkpt lat="45.21584" lon="-0.57">
        <ele>8.308594</ele>
        <time>2009-04-23T12:56:38Z</time>
      </trkpt>
      <trkpt lat="45.21596" lon="-0.56993">
        <ele>8.308594</ele>
        <time>2009-04-23T12:56:48Z</time>
      </trkpt>
      <trkpt lat="45.21609" lon="-0.56985">
        <ele>8.789185</ele>
        <time>2009-04-23T12:56:58Z</time>
      </trkpt>
      <trkpt lat="45.21611" lon="-0.56983">
        <ele>8.308594</ele>
        <time>2009-04-23T12:57:00Z</time>
      </trkpt>
      <trkpt lat="45.21621" lon="-0.56975">
        <ele>8.789185</ele>
        <time>2009-04-23T12:57:08Z</time>
      </trkpt>
      <trkpt lat="45.21628" lon="-0.56969">
        <ele>7.827881</ele>
        <time>2009-04-23T12:57:15Z</time>
      </trkpt>
      <trkpt lat="45.21652" lon="-0.56959">
        <ele>8.789185</ele>
        <time>2009-04-23T12:57:34Z</time>
      </trkpt>
      <trkpt lat="45.21659" lon="-0.5696">
        <ele>7.827881</ele>
        <time>2009-04-23T12:57:39Z</time>
      </trkpt>
      <trkpt lat="45.21662" lon="-0.56958">
        <ele>7.827881</ele>
        <time>2009-04-23T12:57:42Z</time>
      </trkpt>
      <trkpt lat="45.21679" lon="-0.56943">
        <ele>8.308594</ele>
        <time>2009-04-23T12:57:57Z</time>
      </trkpt>
      <trkpt lat="45.21685" lon="-0.56939">
        <ele>8.308594</ele>
        <time>2009-04-23T12:58:01Z</time>
      </trkpt>
      <trkpt lat="45.21706" lon="-0.56931">
        <ele>7.347168</ele>
        <time>2009-04-23T12:58:21Z</time>
      </trkpt>
      <trkpt lat="45.21719" lon="-0.56919">
        <ele>6.866455</ele>
        <time>2009-04-23T12:58:32Z</time>
      </trkpt>
      <trkpt lat="45.21725" lon="-0.56918">
        <ele>6.866455</ele>
        <time>2009-04-23T12:58:36Z</time>
      </trkpt>
      <trkpt lat="45.21728" lon="-0.56915">
        <ele>7.827881</ele>
        <time>2009-04-23T12:58:38Z</time>
      </trkpt>
      <trkpt lat="45.21731" lon="-0.56912">
        <ele>6.866455</ele>
        <time>2009-04-23T12:58:41Z</time>
      </trkpt>
      <trkpt lat="45.21737" lon="-0.56909">
        <ele>6.866455</ele>
        <time>2009-04-23T12:58:56Z</time>
      </trkpt>
      <trkpt lat="45.21747" lon="-0.56902">
        <ele>6.866455</ele>
        <time>2009-04-23T12:59:14Z</time>
      </trkpt>
      <trkpt lat="45.21773" lon="-0.5687">
        <ele>7.827881</ele>
        <time>2009-04-23T12:59:40Z</time>
      </trkpt>
      <trkpt lat="45.21784" lon="-0.56853">
        <ele>7.347168</ele>
        <time>2009-04-23T12:59:53Z</time>
      </trkpt>
      <trkpt lat="45.21797" lon="-0.56846">
        <ele>6.866455</ele>
        <time>2009-04-23T13:00:03Z</time>
      </trkpt>
      <trkpt lat="45.21799" lon="-0.56842">
        <ele>6.866455</ele>
        <time>2009-04-23T13:00:07Z</time>
      </trkpt>
      <trkpt lat="45.21816" lon="-0.56828">
        <ele>6.866455</ele>
        <time>2009-04-23T13:00:22Z</time>
      </trkpt>
      <trkpt lat="45.21821" lon="-0.56818">
        <ele>6.866455</ele>
        <time>2009-04-23T13:00:29Z</time>
      </trkpt>
      <trkpt lat="45.21836" lon="-0.56811">
        <ele>6.385864</ele>
        <time>2009-04-23T13:00:39Z</time>
      </trkpt>
      <trkpt lat="45.21847" lon="-0.56801">
        <ele>6.866455</ele>
        <time>2009-04-23T13:00:49Z</time>
      </trkpt>
      <trkpt lat="45.21864" lon="-0.56785">
        <ele>6.866455</ele>
        <time>2009-04-23T13:01:06Z</time>
      </trkpt>
      <trkpt lat="45.21871" lon="-0.56781">
        <ele>7.347168</ele>
        <time>2009-04-23T13:01:11Z</time>
      </trkpt>
      <trkpt lat="45.21875" lon="-0.56775">
        <ele>5.905273</ele>
        <time>2009-04-23T13:01:14Z</time>
      </trkpt>
      <trkpt lat="45.21879" lon="-0.56773">
        <ele>6.866455</ele>
        <time>2009-04-23T13:01:18Z</time>
      </trkpt>
      <trkpt lat="45.21885" lon="-0.5677">
        <ele>6.866455</ele>
        <time>2009-04-23T13:01:24Z</time>
      </trkpt>
      <trkpt lat="45.21885" lon="-0.56762">
        <ele>5.905273</ele>
        <time>2009-04-23T13:01:27Z</time>
      </trkpt>
      <trkpt lat="45.21889" lon="-0.56757">
        <ele>7.347168</ele>
        <time>2009-04-23T13:01:31Z</time>
      </trkpt>
      <trkpt lat="45.21903" lon="-0.56739">
        <ele>6.385864</ele>
        <time>2009-04-23T13:01:42Z</time>
      </trkpt>
      <trkpt lat="45.2191" lon="-0.56732">
        <ele>6.385864</ele>
        <time>2009-04-23T13:01:50Z</time>
      </trkpt>
      <trkpt lat="45.21917" lon="-0.56731">
        <ele>6.866455</ele>
        <time>2009-04-23T13:01:54Z</time>
      </trkpt>
      <trkpt lat="45.21924" lon="-0.5672">
        <ele>5.905273</ele>
        <time>2009-04-23T13:02:01Z</time>
      </trkpt>
      <trkpt lat="45.21938" lon="-0.56705">
        <ele>4.463257</ele>
        <time>2009-04-23T13:02:17Z</time>
      </trkpt>
      <trkpt lat="45.21945" lon="-0.56697">
        <ele>4.463257</ele>
        <time>2009-04-23T13:02:24Z</time>
      </trkpt>
      <trkpt lat="45.21952" lon="-0.56684">
        <ele>4.463257</ele>
        <time>2009-04-23T13:02:34Z</time>
      </trkpt>
      <trkpt lat="45.21957" lon="-0.56676">
        <ele>3.982666</ele>
        <time>2009-04-23T13:02:39Z</time>
      </trkpt>
      <trkpt lat="45.21971" lon="-0.5667">
        <ele>4.463257</ele>
        <time>2009-04-23T13:02:51Z</time>
      </trkpt>
      <trkpt lat="45.21972" lon="-0.56664">
        <ele>4.943848</ele>
        <time>2009-04-23T13:02:55Z</time>
      </trkpt>
      <trkpt lat="45.21965" lon="-0.56637">
        <ele>4.943848</ele>
        <time>2009-04-23T13:03:13Z</time>
      </trkpt>
      <trkpt lat="45.21958" lon="-0.56614">
        <ele>4.943848</ele>
        <time>2009-04-23T13:03:30Z</time>
      </trkpt>
      <trkpt lat="45.21954" lon="-0.56582">
        <ele>4.943848</ele>
        <time>2009-04-23T13:03:47Z</time>
      </trkpt>
      <trkpt lat="45.21951" lon="-0.56553">
        <ele>5.424561</ele>
        <time>2009-04-23T13:04:03Z</time>
      </trkpt>
      <trkpt lat="45.21941" lon="-0.56521">
        <ele>5.905273</ele>
        <time>2009-04-23T13:04:20Z</time>
      </trkpt>
      <trkpt lat="45.21939" lon="-0.56499">
        <ele>5.905273</ele>
        <time>2009-04-23T13:04:35Z</time>
      </trkpt>
      <trkpt lat="45.21938" lon="-0.5648">
        <ele>6.385864</ele>
        <time>2009-04-23T13:04:47Z</time>
      </trkpt>
      <trkpt lat="45.21939" lon="-0.56451">
        <ele>6.385864</ele>
        <time>2009-04-23T13:05:04Z</time>
      </trkpt>
      <trkpt lat="45.21939" lon="-0.56439">
        <ele>7.347168</ele>
        <time>2009-04-23T13:05:12Z</time>
      </trkpt>
      <trkpt lat="45.21937" lon="-0.56416">
        <ele>7.347168</ele>
        <time>2009-04-23T13:05:26Z</time>
      </trkpt>
      <trkpt lat="45.21936" lon="-0.56385">
        <ele>6.866455</ele>
        <time>2009-04-23T13:05:43Z</time>
      </trkpt>
      <trkpt lat="45.21932" lon="-0.56354">
        <ele>6.866455</ele>
        <time>2009-04-23T13:06:01Z</time>
      </trkpt>
      <trkpt lat="45.2193" lon="-0.56322">
        <ele>6.866455</ele>
        <time>2009-04-23T13:06:18Z</time>
      </trkpt>
      <trkpt lat="45.21931" lon="-0.56294">
        <ele>6.866455</ele>
        <time>2009-04-23T13:06:33Z</time>
      </trkpt>
      <trkpt lat="45.21932" lon="-0.5629">
        <ele>6.866455</ele>
        <time>2009-04-23T13:06:36Z</time>
      </trkpt>
      <trkpt lat="45.21938" lon="-0.56262">
        <ele>6.866455</ele>
        <time>2009-04-23T13:06:51Z</time>
      </trkpt>
      <trkpt lat="45.21941" lon="-0.5625">
        <ele>6.866455</ele>
        <time>2009-04-23T13:06:57Z</time>
      </trkpt>
      <trkpt lat="45.21944" lon="-0.56239">
        <ele>6.866455</ele>
        <time>2009-04-23T13:07:03Z</time>
      </trkpt>
      <trkpt lat="45.21946" lon="-0.56237">
        <ele>6.385864</ele>
        <time>2009-04-23T13:07:05Z</time>
      </trkpt>
      <trkpt lat="45.21952" lon="-0.5623">
        <ele>6.385864</ele>
        <time>2009-04-23T13:07:11Z</time>
      </trkpt>
      <trkpt lat="45.21958" lon="-0.56228">
        <ele>6.385864</ele>
        <time>2009-04-23T13:07:15Z</time>
      </trkpt>
      <trkpt lat="45.21975" lon="-0.56237">
        <ele>7.347168</ele>
        <time>2009-04-23T13:07:30Z</time>
      </trkpt>
      <trkpt lat="45.22002" lon="-0.5627">
        <ele>6.866455</ele>
        <time>2009-04-23T13:07:55Z</time>
      </trkpt>
      <trkpt lat="45.22009" lon="-0.56282">
        <ele>6.385864</ele>
        <time>2009-04-23T13:08:04Z</time>
      </trkpt>
      <trkpt lat="45.22025" lon="-0.56294">
        <ele>5.905273</ele>
        <time>2009-04-23T13:08:21Z</time>
      </trkpt>
      <trkpt lat="45.22042" lon="-0.56307">
        <ele>6.385864</ele>
        <time>2009-04-23T13:08:37Z</time>
      </trkpt>
      <trkpt lat="45.22059" lon="-0.56324">
        <ele>5.424561</ele>
        <time>2009-04-23T13:08:53Z</time>
      </trkpt>
      <trkpt lat="45.22077" lon="-0.56335">
        <ele>5.905273</ele>
        <time>2009-04-23T13:09:10Z</time>
      </trkpt>
      <trkpt lat="45.22092" lon="-0.56348">
        <ele>5.905273</ele>
        <time>2009-04-23T13:09:24Z</time>
      </trkpt>
      <trkpt lat="45.22097" lon="-0.56348">
        <ele>5.424561</ele>
        <time>2009-04-23T13:09:30Z</time>
      </trkpt>
      <trkpt lat="45.22101" lon="-0.56347">
        <ele>5.424561</ele>
        <time>2009-04-23T13:09:32Z</time>
      </trkpt>
      <trkpt lat="45.2212" lon="-0.56318">
        <ele>5.905273</ele>
        <time>2009-04-23T13:09:50Z</time>
      </trkpt>
      <trkpt lat="45.22121" lon="-0.56318">
        <ele>5.905273</ele>
        <time>2009-04-23T13:09:51Z</time>
      </trkpt>
      <trkpt lat="45.22124" lon="-0.56315">
        <ele>5.905273</ele>
        <time>2009-04-23T13:09:55Z</time>
      </trkpt>
      <trkpt lat="45.22128" lon="-0.56309">
        <ele>5.424561</ele>
        <time>2009-04-23T13:10:00Z</time>
      </trkpt>
      <trkpt lat="45.22131" lon="-0.56306">
        <ele>6.385864</ele>
        <time>2009-04-23T13:10:03Z</time>
      </trkpt>
      <trkpt lat="45.22137" lon="-0.563">
        <ele>5.424561</ele>
        <time>2009-04-23T13:10:09Z</time>
      </trkpt>
      <trkpt lat="45.22148" lon="-0.56282">
        <ele>5.424561</ele>
        <time>2009-04-23T13:10:21Z</time>
      </trkpt>
      <trkpt lat="45.2216" lon="-0.56261">
        <ele>5.424561</ele>
        <time>2009-04-23T13:10:37Z</time>
      </trkpt>
      <trkpt lat="45.22172" lon="-0.56235">
        <ele>5.905273</ele>
        <time>2009-04-23T13:10:54Z</time>
      </trkpt>
      <trkpt lat="45.22177" lon="-0.56221">
        <ele>5.424561</ele>
        <time>2009-04-23T13:11:01Z</time>
      </trkpt>
      <trkpt lat="45.22192" lon="-0.56195">
        <ele>5.905273</ele>
        <time>2009-04-23T13:11:20Z</time>
      </trkpt>
      <trkpt lat="45.22199" lon="-0.56189">
        <ele>5.424561</ele>
        <time>2009-04-23T13:11:27Z</time>
      </trkpt>
      <trkpt lat="45.22202" lon="-0.56183">
        <ele>6.385864</ele>
        <time>2009-04-23T13:11:32Z</time>
      </trkpt>
      <trkpt lat="45.22211" lon="-0.56172">
        <ele>5.424561</ele>
        <time>2009-04-23T13:11:41Z</time>
      </trkpt>
      <trkpt lat="45.22218" lon="-0.56161">
        <ele>4.943848</ele>
        <time>2009-04-23T13:11:49Z</time>
      </trkpt>
      <trkpt lat="45.22227" lon="-0.56161">
        <ele>4.943848</ele>
        <time>2009-04-23T13:11:54Z</time>
      </trkpt>
      <trkpt lat="45.22251" lon="-0.56162">
        <ele>4.943848</ele>
        <time>2009-04-23T13:12:11Z</time>
      </trkpt>
      <trkpt lat="45.22268" lon="-0.56147">
        <ele>4.463257</ele>
        <time>2009-04-23T13:12:27Z</time>
      </trkpt>
      <trkpt lat="45.22268" lon="-0.56144">
        <ele>4.943848</ele>
        <time>2009-04-23T13:12:29Z</time>
      </trkpt>
      <trkpt lat="45.22294" lon="-0.56114">
        <ele>5.905273</ele>
        <time>2009-04-23T13:12:54Z</time>
      </trkpt>
      <trkpt lat="45.22309" lon="-0.56098">
        <ele>6.385864</ele>
        <time>2009-04-23T13:13:09Z</time>
      </trkpt>
      <trkpt lat="45.22315" lon="-0.56087">
        <ele>6.385864</ele>
        <time>2009-04-23T13:13:16Z</time>
      </trkpt>
      <trkpt lat="45.22331" lon="-0.56064">
        <ele>7.347168</ele>
        <time>2009-04-23T13:13:33Z</time>
      </trkpt>
      <trkpt lat="45.22342" lon="-0.56055">
        <ele>7.347168</ele>
        <time>2009-04-23T13:13:42Z</time>
      </trkpt>
      <trkpt lat="45.22345" lon="-0.56048">
        <ele>5.424561</ele>
        <time>2009-04-23T13:13:47Z</time>
      </trkpt>
      <trkpt lat="45.2236" lon="-0.56027">
        <ele>7.347168</ele>
        <time>2009-04-23T13:14:05Z</time>
      </trkpt>
      <trkpt lat="45.22365" lon="-0.5602">
        <ele>8.308594</ele>
        <time>2009-04-23T13:14:09Z</time>
      </trkpt>
      <trkpt lat="45.22375" lon="-0.55986">
        <ele>6.866455</ele>
        <time>2009-04-23T13:14:29Z</time>
      </trkpt>
      <trkpt lat="45.22379" lon="-0.55977">
        <ele>7.827881</ele>
        <time>2009-04-23T13:14:34Z</time>
      </trkpt>
      <trkpt lat="45.22383" lon="-0.55941">
        <ele>6.866455</ele>
        <time>2009-04-23T13:14:52Z</time>
      </trkpt>
      <trkpt lat="45.22386" lon="-0.5593">
        <ele>8.308594</ele>
        <time>2009-04-23T13:14:58Z</time>
      </trkpt>
      <trkpt lat="45.22387" lon="-0.55921">
        <ele>8.308594</ele>
        <time>2009-04-23T13:15:02Z</time>
      </trkpt>
      <trkpt lat="45.22393" lon="-0.55907">
        <ele>8.308594</ele>
        <time>2009-04-23T13:15:11Z</time>
      </trkpt>
      <trkpt lat="45.22396" lon="-0.55895">
        <ele>7.827881</ele>
        <time>2009-04-23T13:15:17Z</time>
      </trkpt>
      <trkpt lat="45.22401" lon="-0.55882">
        <ele>7.347168</ele>
        <time>2009-04-23T13:15:25Z</time>
      </trkpt>
      <trkpt lat="45.22401" lon="-0.55872">
        <ele>7.347168</ele>
        <time>2009-04-23T13:15:30Z</time>
      </trkpt>
      <trkpt lat="45.22404" lon="-0.55866">
        <ele>7.347168</ele>
        <time>2009-04-23T13:15:34Z</time>
      </trkpt>
      <trkpt lat="45.22404" lon="-0.55856">
        <ele>8.308594</ele>
        <time>2009-04-23T13:15:40Z</time>
      </trkpt>
      <trkpt lat="45.22406" lon="-0.55849">
        <ele>8.308594</ele>
        <time>2009-04-23T13:15:45Z</time>
      </trkpt>
      <trkpt lat="45.22408" lon="-0.55846">
        <ele>8.789185</ele>
        <time>2009-04-23T13:15:48Z</time>
      </trkpt>
      <trkpt lat="45.22421" lon="-0.55835">
        <ele>8.789185</ele>
        <time>2009-04-23T13:15:57Z</time>
      </trkpt>
      <trkpt lat="45.22436" lon="-0.55819">
        <ele>7.827881</ele>
        <time>2009-04-23T13:16:13Z</time>
      </trkpt>
      <trkpt lat="45.22457" lon="-0.55799">
        <ele>9.269897</ele>
        <time>2009-04-23T13:16:31Z</time>
      </trkpt>
      <trkpt lat="45.22462" lon="-0.55796">
        <ele>8.789185</ele>
        <time>2009-04-23T13:16:35Z</time>
      </trkpt>
      <trkpt lat="45.22465" lon="-0.55788">
        <ele>8.789185</ele>
        <time>2009-04-23T13:16:40Z</time>
      </trkpt>
      <trkpt lat="45.22475" lon="-0.55782">
        <ele>8.789185</ele>
        <time>2009-04-23T13:16:50Z</time>
      </trkpt>
      <trkpt lat="45.22476" lon="-0.55778">
        <ele>9.75061</ele>
        <time>2009-04-23T13:16:52Z</time>
      </trkpt>
      <trkpt lat="45.22485" lon="-0.55771">
        <ele>9.75061</ele>
        <time>2009-04-23T13:16:59Z</time>
      </trkpt>
      <trkpt lat="45.22496" lon="-0.55755">
        <ele>10.231201</ele>
        <time>2009-04-23T13:17:14Z</time>
      </trkpt>
      <trkpt lat="45.22499" lon="-0.5575">
        <ele>10.231201</ele>
        <time>2009-04-23T13:17:18Z</time>
      </trkpt>
      <trkpt lat="45.22509" lon="-0.55736">
        <ele>11.192505</ele>
        <time>2009-04-23T13:17:30Z</time>
      </trkpt>
      <trkpt lat="45.22534" lon="-0.55725">
        <ele>11.673218</ele>
        <time>2009-04-23T13:17:50Z</time>
      </trkpt>
      <trkpt lat="45.22535" lon="-0.55719">
        <ele>12.634399</ele>
        <time>2009-04-23T13:17:53Z</time>
      </trkpt>
      <trkpt lat="45.22546" lon="-0.55714">
        <ele>13.115112</ele>
        <time>2009-04-23T13:18:01Z</time>
      </trkpt>
      <trkpt lat="45.22565" lon="-0.55719">
        <ele>13.115112</ele>
        <time>2009-04-23T13:18:14Z</time>
      </trkpt>
      <trkpt lat="45.22573" lon="-0.5575">
        <ele>13.595825</ele>
        <time>2009-04-23T13:18:34Z</time>
      </trkpt>
      <trkpt lat="45.22578" lon="-0.55769">
        <ele>13.595825</ele>
        <time>2009-04-23T13:18:44Z</time>
      </trkpt>
      <trkpt lat="45.22588" lon="-0.55809">
        <ele>13.115112</ele>
        <time>2009-04-23T13:19:09Z</time>
      </trkpt>
      <trkpt lat="45.22598" lon="-0.55862">
        <ele>13.115112</ele>
        <time>2009-04-23T13:19:34Z</time>
      </trkpt>
      <trkpt lat="45.22591" lon="-0.55906">
        <ele>12.634399</ele>
        <time>2009-04-23T13:20:02Z</time>
      </trkpt>
      <trkpt lat="45.22596" lon="-0.55964">
        <ele>12.634399</ele>
        <time>2009-04-23T13:20:29Z</time>
      </trkpt>
      <trkpt lat="45.22592" lon="-0.55967">
        <ele>7.347168</ele>
        <time>2009-04-23T13:20:42Z</time>
      </trkpt>
      <trkpt lat="45.22592" lon="-0.55967">
        <ele>16.960449</ele>
        <time>2009-04-23T13:20:43Z</time>
      </trkpt>
      <trkpt lat="45.22592" lon="-0.55967">
        <ele>13.595825</ele>
        <time>2009-04-23T13:20:44Z</time>
      </trkpt>
      <trkpt lat="45.22592" lon="-0.55967">
        <ele>12.634399</ele>
        <time>2009-04-23T13:20:46Z</time>
      </trkpt>
      <trkpt lat="45.22597" lon="-0.55959">
        <ele>12.634399</ele>
        <time>2009-04-23T13:23:26Z</time>
      </trkpt>
      <trkpt lat="45.22595" lon="-0.55968">
        <ele>15.03772</ele>
        <time>2009-04-23T13:24:30Z</time>
      </trkpt>
      <trkpt lat="45.22594" lon="-0.55969">
        <ele>14.076416</ele>
        <time>2009-04-23T13:25:31Z</time>
      </trkpt>
      <trkpt lat="45.22595" lon="-0.55984">
        <ele>12.634399</ele>
        <time>2009-04-23T13:25:47Z</time>
      </trkpt>
      <trkpt lat="45.22597" lon="-0.56013">
        <ele>14.557007</ele>
        <time>2009-04-23T13:26:06Z</time>
      </trkpt>
      <trkpt lat="45.22598" lon="-0.56025">
        <ele>11.192505</ele>
        <time>2009-04-23T13:26:13Z</time>
      </trkpt>
      <trkpt lat="45.22596" lon="-0.56056">
        <ele>13.115112</ele>
        <time>2009-04-23T13:26:30Z</time>
      </trkpt>
      <trkpt lat="45.22599" lon="-0.56076">
        <ele>13.115112</ele>
        <time>2009-04-23T13:26:43Z</time>
      </trkpt>
      <trkpt lat="45.226" lon="-0.56094">
        <ele>13.115112</ele>
        <time>2009-04-23T13:26:52Z</time>
      </trkpt>
      <trkpt lat="45.226" lon="-0.56106">
        <ele>13.595825</ele>
        <time>2009-04-23T13:26:58Z</time>
      </trkpt>
      <trkpt lat="45.22605" lon="-0.56142">
        <ele>12.153809</ele>
        <time>2009-04-23T13:27:15Z</time>
      </trkpt>
      <trkpt lat="45.22605" lon="-0.56155">
        <ele>12.153809</ele>
        <time>2009-04-23T13:27:21Z</time>
      </trkpt>
      <trkpt lat="45.22606" lon="-0.56168">
        <ele>11.192505</ele>
        <time>2009-04-23T13:27:28Z</time>
      </trkpt>
      <trkpt lat="45.226" lon="-0.56182">
        <ele>10.711792</ele>
        <time>2009-04-23T13:27:38Z</time>
      </trkpt>
      <trkpt lat="45.22599" lon="-0.56192">
        <ele>11.192505</ele>
        <time>2009-04-23T13:27:43Z</time>
      </trkpt>
      <trkpt lat="45.226" lon="-0.56195">
        <ele>10.711792</ele>
        <time>2009-04-23T13:27:45Z</time>
      </trkpt>
      <trkpt lat="45.22602" lon="-0.56204">
        <ele>9.75061</ele>
        <time>2009-04-23T13:27:51Z</time>
      </trkpt>
      <trkpt lat="45.226" lon="-0.56216">
        <ele>11.192505</ele>
        <time>2009-04-23T13:27:57Z</time>
      </trkpt>
      <trkpt lat="45.22599" lon="-0.56222">
        <ele>10.711792</ele>
        <time>2009-04-23T13:28:00Z</time>
      </trkpt>
      <trkpt lat="45.22596" lon="-0.56232">
        <ele>10.231201</ele>
        <time>2009-04-23T13:28:06Z</time>
      </trkpt>
      <trkpt lat="45.22595" lon="-0.56241">
        <ele>9.75061</ele>
        <time>2009-04-23T13:28:11Z</time>
      </trkpt>
      <trkpt lat="45.22591" lon="-0.56258">
        <ele>8.789185</ele>
        <time>2009-04-23T13:28:22Z</time>
      </trkpt>
      <trkpt lat="45.22589" lon="-0.56288">
        <ele>9.269897</ele>
        <time>2009-04-23T13:28:37Z</time>
      </trkpt>
      <trkpt lat="45.22588" lon="-0.56317">
        <ele>8.789185</ele>
        <time>2009-04-23T13:28:52Z</time>
      </trkpt>
      <trkpt lat="45.22588" lon="-0.56322">
        <ele>8.789185</ele>
        <time>2009-04-23T13:28:55Z</time>
      </trkpt>
      <trkpt lat="45.2259" lon="-0.56356">
        <ele>9.75061</ele>
        <time>2009-04-23T13:29:14Z</time>
      </trkpt>
      <trkpt lat="45.22589" lon="-0.56387">
        <ele>9.75061</ele>
        <time>2009-04-23T13:29:30Z</time>
      </trkpt>
      <trkpt lat="45.22589" lon="-0.56389">
        <ele>9.269897</ele>
        <time>2009-04-23T13:29:31Z</time>
      </trkpt>
      <trkpt lat="45.22591" lon="-0.56411">
        <ele>12.634399</ele>
        <time>2009-04-23T13:29:44Z</time>
      </trkpt>
      <trkpt lat="45.22591" lon="-0.56413">
        <ele>9.269897</ele>
        <time>2009-04-23T13:29:45Z</time>
      </trkpt>
      <trkpt lat="45.22593" lon="-0.56427">
        <ele>9.269897</ele>
        <time>2009-04-23T13:29:52Z</time>
      </trkpt>
      <trkpt lat="45.22593" lon="-0.56434">
        <ele>9.269897</ele>
        <time>2009-04-23T13:29:56Z</time>
      </trkpt>
      <trkpt lat="45.22596" lon="-0.56446">
        <ele>8.789185</ele>
        <time>2009-04-23T13:30:02Z</time>
      </trkpt>
      <trkpt lat="45.22599" lon="-0.56458">
        <ele>8.789185</ele>
        <time>2009-04-23T13:30:09Z</time>
      </trkpt>
      <trkpt lat="45.22605" lon="-0.56484">
        <ele>9.269897</ele>
        <time>2009-04-23T13:30:23Z</time>
      </trkpt>
      <trkpt lat="45.22616" lon="-0.56514">
        <ele>9.75061</ele>
        <time>2009-04-23T13:30:40Z</time>
      </trkpt>
      <trkpt lat="45.22618" lon="-0.56525">
        <ele>9.75061</ele>
        <time>2009-04-23T13:30:47Z</time>
      </trkpt>
      <trkpt lat="45.22626" lon="-0.56545">
        <ele>9.269897</ele>
        <time>2009-04-23T13:31:02Z</time>
      </trkpt>
      <trkpt lat="45.22634" lon="-0.56577">
        <ele>8.789185</ele>
        <time>2009-04-23T13:31:20Z</time>
      </trkpt>
      <trkpt lat="45.22644" lon="-0.56609">
        <ele>7.827881</ele>
        <time>2009-04-23T13:31:38Z</time>
      </trkpt>
      <trkpt lat="45.22646" lon="-0.56616">
        <ele>8.789185</ele>
        <time>2009-04-23T13:31:43Z</time>
      </trkpt>
      <trkpt lat="45.22648" lon="-0.56628">
        <ele>8.789185</ele>
        <time>2009-04-23T13:31:50Z</time>
      </trkpt>
      <trkpt lat="45.22649" lon="-0.56636">
        <ele>9.269897</ele>
        <time>2009-04-23T13:31:54Z</time>
      </trkpt>
      <trkpt lat="45.2265" lon="-0.56641">
        <ele>8.308594</ele>
        <time>2009-04-23T13:31:58Z</time>
      </trkpt>
      <trkpt lat="45.22652" lon="-0.56649">
        <ele>8.308594</ele>
        <time>2009-04-23T13:32:03Z</time>
      </trkpt>
      <trkpt lat="45.22655" lon="-0.56661">
        <ele>8.308594</ele>
        <time>2009-04-23T13:32:11Z</time>
      </trkpt>
      <trkpt lat="45.22657" lon="-0.56671">
        <ele>8.308594</ele>
        <time>2009-04-23T13:32:17Z</time>
      </trkpt>
      <trkpt lat="45.2266" lon="-0.5669">
        <ele>8.789185</ele>
        <time>2009-04-23T13:32:28Z</time>
      </trkpt>
      <trkpt lat="45.22658" lon="-0.567">
        <ele>8.308594</ele>
        <time>2009-04-23T13:32:33Z</time>
      </trkpt>
      <trkpt lat="45.22662" lon="-0.56735">
        <ele>8.308594</ele>
        <time>2009-04-23T13:32:52Z</time>
      </trkpt>
      <trkpt lat="45.22665" lon="-0.56764">
        <ele>7.827881</ele>
        <time>2009-04-23T13:33:09Z</time>
      </trkpt>
      <trkpt lat="45.22665" lon="-0.56792">
        <ele>7.827881</ele>
        <time>2009-04-23T13:33:26Z</time>
      </trkpt>
      <trkpt lat="45.22668" lon="-0.5681">
        <ele>8.308594</ele>
        <time>2009-04-23T13:33:36Z</time>
      </trkpt>
      <trkpt lat="45.22669" lon="-0.56824">
        <ele>7.827881</ele>
        <time>2009-04-23T13:33:43Z</time>
      </trkpt>
      <trkpt lat="45.22677" lon="-0.56855">
        <ele>7.347168</ele>
        <time>2009-04-23T13:34:00Z</time>
      </trkpt>
      <trkpt lat="45.22682" lon="-0.5688">
        <ele>7.347168</ele>
        <time>2009-04-23T13:34:15Z</time>
      </trkpt>
      <trkpt lat="45.22686" lon="-0.56889">
        <ele>7.827881</ele>
        <time>2009-04-23T13:34:21Z</time>
      </trkpt>
      <trkpt lat="45.22686" lon="-0.56895">
        <ele>6.866455</ele>
        <time>2009-04-23T13:34:25Z</time>
      </trkpt>
      <trkpt lat="45.22688" lon="-0.56916">
        <ele>6.385864</ele>
        <time>2009-04-23T13:34:38Z</time>
      </trkpt>
      <trkpt lat="45.22689" lon="-0.56924">
        <ele>6.866455</ele>
        <time>2009-04-23T13:34:42Z</time>
      </trkpt>
      <trkpt lat="45.22685" lon="-0.56939">
        <ele>7.347168</ele>
        <time>2009-04-23T13:34:51Z</time>
      </trkpt>
      <trkpt lat="45.22672" lon="-0.56943">
        <ele>4.463257</ele>
        <time>2009-04-23T13:35:02Z</time>
      </trkpt>
      <trkpt lat="45.22651" lon="-0.56948">
        <ele>5.424561</ele>
        <time>2009-04-23T13:35:20Z</time>
      </trkpt>
      <trkpt lat="45.22646" lon="-0.56941">
        <ele>7.827881</ele>
        <time>2009-04-23T13:35:25Z</time>
      </trkpt>
      <trkpt lat="45.22643" lon="-0.56946">
        <ele>6.866455</ele>
        <time>2009-04-23T13:35:28Z</time>
      </trkpt>
      <trkpt lat="45.22636" lon="-0.56949">
        <ele>5.424561</ele>
        <time>2009-04-23T13:35:35Z</time>
      </trkpt>
      <trkpt lat="45.22632" lon="-0.56951">
        <ele>5.905273</ele>
        <time>2009-04-23T13:35:38Z</time>
      </trkpt>
      <trkpt lat="45.2261" lon="-0.56963">
        <ele>5.424561</ele>
        <time>2009-04-23T13:35:57Z</time>
      </trkpt>
      <trkpt lat="45.22608" lon="-0.56964">
        <ele>5.424561</ele>
        <time>2009-04-23T13:35:59Z</time>
      </trkpt>
      <trkpt lat="45.22593" lon="-0.56975">
        <ele>5.424561</ele>
        <time>2009-04-23T13:36:13Z</time>
      </trkpt>
      <trkpt lat="45.22566" lon="-0.56983">
        <ele>5.424561</ele>
        <time>2009-04-23T13:36:33Z</time>
      </trkpt>
      <trkpt lat="45.22553" lon="-0.56988">
        <ele>3.982666</ele>
        <time>2009-04-23T13:36:44Z</time>
      </trkpt>
      <trkpt lat="45.22547" lon="-0.56993">
        <ele>4.463257</ele>
        <time>2009-04-23T13:36:50Z</time>
      </trkpt>
      <trkpt lat="45.22535" lon="-0.57001">
        <ele>4.943848</ele>
        <time>2009-04-23T13:36:58Z</time>
      </trkpt>
      <trkpt lat="45.22527" lon="-0.57005">
        <ele>3.02124</ele>
        <time>2009-04-23T13:37:05Z</time>
      </trkpt>
      <trkpt lat="45.22525" lon="-0.57007">
        <ele>3.982666</ele>
        <time>2009-04-23T13:37:07Z</time>
      </trkpt>
      <trkpt lat="45.22518" lon="-0.56994">
        <ele>3.02124</ele>
        <time>2009-04-23T13:37:14Z</time>
      </trkpt>
      <trkpt lat="45.22494" lon="-0.56981">
        <ele>3.02124</ele>
        <time>2009-04-23T13:37:34Z</time>
      </trkpt>
      <trkpt lat="45.22476" lon="-0.56965">
        <ele>2.540649</ele>
        <time>2009-04-23T13:37:51Z</time>
      </trkpt>
      <trkpt lat="45.22469" lon="-0.56962">
        <ele>2.540649</ele>
        <time>2009-04-23T13:37:58Z</time>
      </trkpt>
      <trkpt lat="45.22465" lon="-0.56962">
        <ele>2.060059</ele>
        <time>2009-04-23T13:38:02Z</time>
      </trkpt>
      <trkpt lat="45.22441" lon="-0.56968">
        <ele>3.501953</ele>
        <time>2009-04-23T13:38:21Z</time>
      </trkpt>
      <trkpt lat="45.22426" lon="-0.5698">
        <ele>3.02124</ele>
        <time>2009-04-23T13:38:37Z</time>
      </trkpt>
      <trkpt lat="45.22415" lon="-0.56991">
        <ele>3.02124</ele>
        <time>2009-04-23T13:38:51Z</time>
      </trkpt>
      <trkpt lat="45.22412" lon="-0.57">
        <ele>2.540649</ele>
        <time>2009-04-23T13:38:57Z</time>
      </trkpt>
      <trkpt lat="45.22411" lon="-0.57011">
        <ele>2.060059</ele>
        <time>2009-04-23T13:39:04Z</time>
      </trkpt>
      <trkpt lat="45.22411" lon="-0.57017">
        <ele>2.060059</ele>
        <time>2009-04-23T13:39:09Z</time>
      </trkpt>
      <trkpt lat="45.22408" lon="-0.57037">
        <ele>3.02124</ele>
        <time>2009-04-23T13:39:21Z</time>
      </trkpt>
      <trkpt lat="45.22408" lon="-0.5707">
        <ele>3.501953</ele>
        <time>2009-04-23T13:39:39Z</time>
      </trkpt>
      <trkpt lat="45.22407" lon="-0.57074">
        <ele>2.060059</ele>
        <time>2009-04-23T13:39:42Z</time>
      </trkpt>
      <trkpt lat="45.22403" lon="-0.57086">
        <ele>2.540649</ele>
        <time>2009-04-23T13:39:51Z</time>
      </trkpt>
      <trkpt lat="45.22402" lon="-0.57106">
        <ele>1.579346</ele>
        <time>2009-04-23T13:40:02Z</time>
      </trkpt>
      <trkpt lat="45.22403" lon="-0.57134">
        <ele>2.060059</ele>
        <time>2009-04-23T13:40:17Z</time>
      </trkpt>
      <trkpt lat="45.22403" lon="-0.57142">
        <ele>1.098633</ele>
        <time>2009-04-23T13:40:21Z</time>
      </trkpt>
      <trkpt lat="45.22398" lon="-0.57171">
        <ele>2.540649</ele>
        <time>2009-04-23T13:40:39Z</time>
      </trkpt>
      <trkpt lat="45.22399" lon="-0.57175">
        <ele>2.540649</ele>
        <time>2009-04-23T13:40:41Z</time>
      </trkpt>
      <trkpt lat="45.22398" lon="-0.5719">
        <ele>2.060059</ele>
        <time>2009-04-23T13:40:50Z</time>
      </trkpt>
      <trkpt lat="45.22394" lon="-0.57221">
        <ele>2.540649</ele>
        <time>2009-04-23T13:41:07Z</time>
      </trkpt>
      <trkpt lat="45.22394" lon="-0.57245">
        <ele>1.579346</ele>
        <time>2009-04-23T13:41:25Z</time>
      </trkpt>
      <trkpt lat="45.22408" lon="-0.57253">
        <ele>2.060059</ele>
        <time>2009-04-23T13:41:40Z</time>
      </trkpt>
      <trkpt lat="45.22421" lon="-0.57253">
        <ele>3.02124</ele>
        <time>2009-04-23T13:41:51Z</time>
      </trkpt>
      <trkpt lat="45.22428" lon="-0.57254">
        <ele>2.540649</ele>
        <time>2009-04-23T13:41:56Z</time>
      </trkpt>
      <trkpt lat="45.22432" lon="-0.57255">
        <ele>3.02124</ele>
        <time>2009-04-23T13:41:58Z</time>
      </trkpt>
      <trkpt lat="45.22436" lon="-0.57263">
        <ele>3.02124</ele>
        <time>2009-04-23T13:42:03Z</time>
      </trkpt>
      <trkpt lat="45.22439" lon="-0.5727">
        <ele>3.982666</ele>
        <time>2009-04-23T13:42:08Z</time>
      </trkpt>
      <trkpt lat="45.22437" lon="-0.57288">
        <ele>4.463257</ele>
        <time>2009-04-23T13:42:17Z</time>
      </trkpt>
      <trkpt lat="45.22448" lon="-0.57302">
        <ele>3.02124</ele>
        <time>2009-04-23T13:42:32Z</time>
      </trkpt>
      <trkpt lat="45.22467" lon="-0.57314">
        <ele>2.540649</ele>
        <time>2009-04-23T13:42:48Z</time>
      </trkpt>
      <trkpt lat="45.22479" lon="-0.57322">
        <ele>3.501953</ele>
        <time>2009-04-23T13:43:01Z</time>
      </trkpt>
      <trkpt lat="45.22494" lon="-0.57331">
        <ele>4.463257</ele>
        <time>2009-04-23T13:43:13Z</time>
      </trkpt>
      <trkpt lat="45.22497" lon="-0.57332">
        <ele>2.060059</ele>
        <time>2009-04-23T13:43:15Z</time>
      </trkpt>
      <trkpt lat="45.22522" lon="-0.57338">
        <ele>2.540649</ele>
        <time>2009-04-23T13:43:36Z</time>
      </trkpt>
      <trkpt lat="45.22539" lon="-0.57356">
        <ele>3.501953</ele>
        <time>2009-04-23T13:43:54Z</time>
      </trkpt>
      <trkpt lat="45.22562" lon="-0.57349">
        <ele>3.982666</ele>
        <time>2009-04-23T13:44:10Z</time>
      </trkpt>
      <trkpt lat="45.22582" lon="-0.5736">
        <ele>4.463257</ele>
        <time>2009-04-23T13:44:26Z</time>
      </trkpt>
      <trkpt lat="45.22594" lon="-0.57367">
        <ele>4.463257</ele>
        <time>2009-04-23T13:44:37Z</time>
      </trkpt>
      <trkpt lat="45.22602" lon="-0.5737">
        <ele>4.943848</ele>
        <time>2009-04-23T13:44:45Z</time>
      </trkpt>
      <trkpt lat="45.22611" lon="-0.57375">
        <ele>4.463257</ele>
        <time>2009-04-23T13:44:54Z</time>
      </trkpt>
      <trkpt lat="45.22613" lon="-0.57375">
        <ele>4.463257</ele>
        <time>2009-04-23T13:44:57Z</time>
      </trkpt>
      <trkpt lat="45.22621" lon="-0.57378">
        <ele>4.943848</ele>
        <time>2009-04-23T13:45:03Z</time>
      </trkpt>
      <trkpt lat="45.22634" lon="-0.57367">
        <ele>4.943848</ele>
        <time>2009-04-23T13:45:14Z</time>
      </trkpt>
      <trkpt lat="45.22641" lon="-0.57352">
        <ele>3.982666</ele>
        <time>2009-04-23T13:45:21Z</time>
      </trkpt>
      <trkpt lat="45.22655" lon="-0.57333">
        <ele>4.463257</ele>
        <time>2009-04-23T13:45:36Z</time>
      </trkpt>
      <trkpt lat="45.22655" lon="-0.57331">
        <ele>3.501953</ele>
        <time>2009-04-23T13:45:38Z</time>
      </trkpt>
      <trkpt lat="45.22675" lon="-0.57308">
        <ele>4.943848</ele>
        <time>2009-04-23T13:45:57Z</time>
      </trkpt>
      <trkpt lat="45.2269" lon="-0.57287">
        <ele>4.463257</ele>
        <time>2009-04-23T13:46:14Z</time>
      </trkpt>
      <trkpt lat="45.22709" lon="-0.57265">
        <ele>5.905273</ele>
        <time>2009-04-23T13:46:32Z</time>
      </trkpt>
      <trkpt lat="45.22711" lon="-0.57262">
        <ele>4.943848</ele>
        <time>2009-04-23T13:46:35Z</time>
      </trkpt>
      <trkpt lat="45.22725" lon="-0.57243">
        <ele>4.463257</ele>
        <time>2009-04-23T13:46:52Z</time>
      </trkpt>
      <trkpt lat="45.22729" lon="-0.57241">
        <ele>5.424561</ele>
        <time>2009-04-23T13:46:57Z</time>
      </trkpt>
      <trkpt lat="45.22734" lon="-0.57245">
        <ele>4.943848</ele>
        <time>2009-04-23T13:47:02Z</time>
      </trkpt>
      <trkpt lat="45.22741" lon="-0.57248">
        <ele>5.424561</ele>
        <time>2009-04-23T13:47:13Z</time>
      </trkpt>
      <trkpt lat="45.22752" lon="-0.57243">
        <ele>6.385864</ele>
        <time>2009-04-23T13:47:30Z</time>
      </trkpt>
      <trkpt lat="45.22753" lon="-0.57245">
        <ele>5.905273</ele>
        <time>2009-04-23T13:47:32Z</time>
      </trkpt>
      <trkpt lat="45.22752" lon="-0.57249">
        <ele>5.905273</ele>
        <time>2009-04-23T13:47:52Z</time>
      </trkpt>
      <trkpt lat="45.22751" lon="-0.5725">
        <ele>6.385864</ele>
        <time>2009-04-23T13:48:21Z</time>
      </trkpt>
      <trkpt lat="45.2275" lon="-0.5725">
        <ele>6.385864</ele>
        <time>2009-04-23T13:48:24Z</time>
      </trkpt>
    </trkseg>
  </trk>
</gpx>